Time;durP1;ratioP1;P1;durP2;ratioP2;P2;SDS_P1;SDS_P2;PMS_P1;PMS_P2;Temp;Humidity;BMP_temperature;BMP_pressure;BME280_temperature;BME280_humidity;BME280_pressure;Samples;Min_cycle;Max_cycle;Signal;HPM_P1;HPM_P2
2021/03/30 00:00:38;;;;;;;1.83;0.90;;;23.20;43.00;;;;;;5097888;28;20044;-37
2021/03/30 00:03:05;;;;;;;1.70;1.00;;;23.20;43.00;;;;;;5098913;28;20567;-37
2021/03/30 00:05:32;;;;;;;2.08;1.08;;;23.20;43.00;;;;;;5115008;27;20042;-37
2021/03/30 00:07:58;;;;;;;1.98;1.13;;;23.20;43.00;;;;;;5096311;28;20055;-37
2021/03/30 00:10:31;;;;;;;1.60;0.93;;;23.20;43.00;;;;;;5096918;28;20076;-37
2021/03/30 00:12:58;;;;;;;1.55;1.02;;;23.20;43.00;;;;;;5123827;27;20051;-37
2021/03/30 00:15:24;;;;;;;1.10;0.90;;;23.20;43.00;;;;;;5135092;27;20051;-37
2021/03/30 00:17:51;;;;;;;1.88;1.05;;;23.20;43.00;;;;;;5114321;27;20047;-37
2021/03/30 00:20:18;;;;;;;1.42;1.10;;;23.20;43.00;;;;;;5119138;27;20452;-37
2021/03/30 00:22:45;;;;;;;1.63;0.90;;;23.20;43.00;;;;;;5106104;28;20089;-37
2021/03/30 00:25:13;;;;;;;1.20;0.90;;;23.20;43.00;;;;;;5104005;27;20043;-37
2021/03/30 00:27:39;;;;;;;1.65;1.00;;;23.20;43.00;;;;;;5119249;27;20050;-37
2021/03/30 00:30:09;;;;;;;1.35;1.05;;;23.20;43.00;;;;;;5118813;27;20047;-37
2021/03/30 00:32:36;;;;;;;1.45;0.88;;;23.20;43.00;;;;;;5134202;27;20111;-37
2021/03/30 00:35:04;;;;;;;1.45;0.95;;;23.20;43.00;;;;;;5117845;27;20133;-37
2021/03/30 00:37:35;;;;;;;1.55;1.10;;;23.20;43.00;;;;;;5134104;27;20054;-37
2021/03/30 00:40:04;;;;;;;1.15;0.95;;;23.20;43.00;;;;;;5134193;27;20411;-37
2021/03/30 00:42:30;;;;;;;1.45;1.08;;;23.20;43.00;;;;;;5135774;27;20137;-37
2021/03/30 00:44:58;;;;;;;1.15;0.80;;;23.20;43.00;;;;;;5117477;27;20043;-37
2021/03/30 00:47:27;;;;;;;1.20;0.90;;;23.20;43.00;;;;;;5133085;27;20047;-37
2021/03/30 00:49:55;;;;;;;1.33;0.85;;;23.20;43.00;;;;;;5133142;27;20418;-37
2021/03/30 00:52:23;;;;;;;1.58;0.95;;;23.20;43.60;;;;;;5132078;27;20043;-37
2021/03/30 00:54:50;;;;;;;1.98;1.00;;;23.20;43.00;;;;;;5132872;27;20039;-37
2021/03/30 00:57:18;;;;;;;1.60;0.88;;;23.20;43.00;;;;;;5133084;27;20141;-37
2021/03/30 00:59:46;;;;;;;1.45;1.10;;;23.20;43.00;;;;;;5134093;27;20544;-37
2021/03/30 01:02:13;;;;;;;2.40;1.17;;;23.20;43.00;;;;;;5131237;27;20068;-38
2021/03/30 01:04:40;;;;;;;1.88;1.13;;;23.20;43.00;;;;;;5135579;27;20058;-37
2021/03/30 01:07:08;;;;;;;1.55;1.00;;;23.20;43.00;;;;;;5118251;27;20462;-37
2021/03/30 01:09:53;;;;;;;1.20;0.90;;;23.20;43.00;;;;;;5133030;27;20468;-37
2021/03/30 01:12:30;;;;;;;1.42;0.93;;;23.20;43.00;;;;;;5114958;27;20055;-37
2021/03/30 01:15:08;;;;;;;2.05;1.13;;;23.20;43.00;;;;;;5132999;27;20051;-37
2021/03/30 01:17:48;;;;;;;2.55;0.95;;;23.20;43.00;;;;;;5132971;27;20049;-37
2021/03/30 01:20:49;;;;;;;1.60;0.82;;;23.20;43.00;;;;;;5115818;27;20043;-37
2021/03/30 01:23:33;;;;;;;1.70;1.05;;;23.10;43.00;;;;;;5131957;27;20091;-37
2021/03/30 01:26:23;;;;;;;1.15;0.80;;;23.20;43.70;;;;;;5132378;27;20470;-38
2021/03/30 01:29:12;;;;;;;2.47;1.35;;;23.20;43.00;;;;;;5133141;27;20043;-38
2021/03/30 01:31:41;;;;;;;2.65;1.33;;;23.10;43.00;;;;;;5117226;27;20052;-37
2021/03/30 01:34:11;;;;;;;1.98;1.00;;;23.10;43.00;;;;;;5106499;28;20047;-37
2021/03/30 01:36:42;;;;;;;1.40;1.00;;;23.20;43.00;;;;;;5114494;27;20049;-37
2021/03/30 01:39:12;;;;;;;1.33;0.90;;;23.20;43.00;;;;;;5133734;27;20352;-37
2021/03/30 01:41:44;;;;;;;1.25;1.05;;;23.10;43.00;;;;;;5131049;27;20051;-37
2021/03/30 01:44:13;;;;;;;1.20;0.90;;;23.10;43.00;;;;;;5132190;27;20043;-37
2021/03/30 01:46:41;;;;;;;1.90;1.10;;;23.10;43.00;;;;;;5133260;27;20074;-37
2021/03/30 01:49:10;;;;;;;1.48;1.00;;;23.10;43.00;;;;;;5114992;27;20433;-37
2021/03/30 01:51:37;;;;;;;1.45;1.10;;;23.10;43.00;;;;;;5130716;27;20513;-38
2021/03/30 01:54:06;;;;;;;1.75;1.00;;;23.10;43.00;;;;;;5131740;27;20057;-38
2021/03/30 01:56:34;;;;;;;1.25;0.98;;;23.10;43.00;;;;;;5131498;27;20058;-37
2021/03/30 01:59:03;;;;;;;1.63;0.80;;;23.10;43.00;;;;;;5131184;27;20455;-38
2021/03/30 02:01:30;;;;;;;1.55;0.88;;;23.10;43.00;;;;;;5114504;27;20036;-38
2021/03/30 02:03:59;;;;;;;2.05;1.00;;;23.10;43.00;;;;;;5115457;27;20087;-37
2021/03/30 02:06:28;;;;;;;0.98;0.85;;;23.10;43.00;;;;;;5125076;27;20054;-37
2021/03/30 02:09:00;;;;;;;1.10;0.88;;;23.10;43.00;;;;;;5132398;27;20070;-39
2021/03/30 02:11:36;;;;;;;1.38;0.90;;;23.10;43.00;;;;;;5132994;27;20043;-38
2021/03/30 02:14:03;;;;;;;1.67;1.08;;;23.10;43.00;;;;;;5131582;27;20082;-37
2021/03/30 02:16:34;;;;;;;1.38;0.90;;;23.10;43.70;;;;;;5131309;27;20486;-38
2021/03/30 02:19:11;;;;;;;1.55;0.95;;;23.10;43.00;;;;;;5122678;27;20179;-37
2021/03/30 02:21:48;;;;;;;1.95;1.10;;;23.10;43.00;;;;;;5127718;27;20074;-37
2021/03/30 02:24:17;;;;;;;2.22;1.23;;;23.10;43.00;;;;;;5133813;27;20468;-38
2021/03/30 02:26:46;;;;;;;1.13;0.80;;;23.10;43.00;;;;;;5132048;27;20122;-38
2021/03/30 02:29:17;;;;;;;1.77;1.30;;;23.10;43.00;;;;;;5129740;27;20112;-37
2021/03/30 02:31:47;;;;;;;1.40;0.95;;;23.10;43.00;;;;;;5118299;27;20466;-37
2021/03/30 02:34:15;;;;;;;1.55;0.98;;;23.10;43.00;;;;;;5122081;27;20047;-37
2021/03/30 02:36:44;;;;;;;1.67;1.15;;;23.10;43.00;;;;;;5132648;27;20119;-37
2021/03/30 02:39:13;;;;;;;1.58;0.98;;;23.10;43.00;;;;;;5131674;27;20108;-38
2021/03/30 02:41:42;;;;;;;1.40;1.00;;;23.10;43.00;;;;;;5131683;28;20559;-37
2021/03/30 02:44:11;;;;;;;1.20;0.98;;;23.10;43.00;;;;;;5096749;28;20047;-37
2021/03/30 02:46:39;;;;;;;1.20;1.00;;;23.00;42.90;;;;;;5133758;27;20058;-37
2021/03/30 02:49:11;;;;;;;2.63;1.35;;;23.00;42.90;;;;;;5136339;27;20103;-37
2021/03/30 02:51:38;;;;;;;1.83;1.15;;;23.10;43.00;;;;;;5125596;27;20122;-38
2021/03/30 02:54:08;;;;;;;2.05;1.25;;;23.00;42.90;;;;;;5119558;27;20047;-37
2021/03/30 02:56:36;;;;;;;1.20;0.85;;;23.00;42.90;;;;;;5120414;27;20040;-37
2021/03/30 02:59:04;;;;;;;1.67;0.90;;;23.10;43.00;;;;;;5121755;27;20070;-37
2021/03/30 03:01:32;;;;;;;1.08;0.90;;;23.10;43.10;;;;;;5123559;27;20490;-37
2021/03/30 03:04:01;;;;;;;2.28;1.00;;;23.00;42.90;;;;;;5136313;27;20046;-37
2021/03/30 03:06:29;;;;;;;1.48;1.00;;;23.00;42.90;;;;;;5132714;27;20038;-37
2021/03/30 03:08:58;;;;;;;1.48;1.00;;;23.00;42.90;;;;;;5120748;27;20448;-38
2021/03/30 03:11:26;;;;;;;1.33;1.05;;;23.00;42.90;;;;;;5117411;27;20440;-37
2021/03/30 03:13:55;;;;;;;1.80;1.27;;;23.00;42.90;;;;;;5136484;27;20108;-37
2021/03/30 03:16:23;;;;;;;2.22;1.00;;;23.00;42.90;;;;;;5135021;27;20043;-37
2021/03/30 03:18:52;;;;;;;0.80;0.80;;;23.00;43.60;;;;;;5135941;27;20047;-37
2021/03/30 03:21:24;;;;;;;1.42;0.98;;;23.00;42.90;;;;;;5135835;27;20092;-38
2021/03/30 03:23:51;;;;;;;1.42;1.10;;;23.00;42.90;;;;;;5135906;27;20418;-37
2021/03/30 03:26:18;;;;;;;1.45;1.08;;;23.00;42.90;;;;;;5135819;27;20051;-38
2021/03/30 03:28:46;;;;;;;1.52;1.08;;;23.00;43.00;;;;;;5137381;27;20502;-37
2021/03/30 03:31:14;;;;;;;1.10;1.00;;;23.00;43.00;;;;;;5124954;27;20039;-38
2021/03/30 03:33:42;;;;;;;1.83;1.20;;;23.00;42.90;;;;;;5137060;27;20415;-38
2021/03/30 03:36:12;;;;;;;1.08;0.82;;;23.00;43.00;;;;;;5135501;27;20047;-38
2021/03/30 03:38:41;;;;;;;2.05;0.90;;;23.00;42.90;;;;;;5137548;27;20039;-37
2021/03/30 03:41:16;;;;;;;1.13;0.93;;;23.00;43.00;;;;;;5134749;27;20043;-37
2021/03/30 03:43:45;;;;;;;1.10;0.90;;;23.00;43.00;;;;;;5134647;27;20047;-37
2021/03/30 03:46:16;;;;;;;1.13;0.88;;;23.00;43.00;;;;;;5136043;27;20055;-37
2021/03/30 03:48:44;;;;;;;1.50;1.20;;;23.00;43.00;;;;;;5134638;27;20039;-38
2021/03/30 03:51:15;;;;;;;1.45;0.93;;;23.00;43.00;;;;;;5135581;27;20039;-37
2021/03/30 03:53:43;;;;;;;1.63;1.00;;;23.00;43.00;;;;;;5133845;27;20050;-38
2021/03/30 03:56:13;;;;;;;1.30;0.82;;;23.00;43.00;;;;;;5133063;27;20092;-37
2021/03/30 03:58:44;;;;;;;1.33;0.75;;;23.00;43.00;;;;;;5133528;27;20471;-38
2021/03/30 04:01:15;;;;;;;1.25;0.90;;;23.00;43.00;;;;;;5135491;27;20452;-38
2021/03/30 04:03:53;;;;;;;1.65;0.98;;;23.00;43.00;;;;;;5133213;27;20398;-37
2021/03/30 04:06:28;;;;;;;0.93;0.77;;;23.00;43.00;;;;;;5134748;27;20047;-38
2021/03/30 04:08:59;;;;;;;1.88;1.10;;;23.00;43.00;;;;;;5133747;27;20159;-38
2021/03/30 04:11:28;;;;;;;1.77;1.13;;;23.00;43.00;;;;;;5134419;27;20039;-38
2021/03/30 04:13:58;;;;;;;1.45;0.90;;;23.00;43.00;;;;;;5133407;27;20042;-38
2021/03/30 04:16:25;;;;;;;1.75;1.25;;;23.00;43.10;;;;;;5136181;27;20043;-38
2021/03/30 04:18:52;;;;;;;1.95;1.00;;;23.00;43.00;;;;;;5134960;27;20047;-37
2021/03/30 04:21:29;;;;;;;1.50;1.20;;;23.00;43.00;;;;;;5135273;27;20495;-37
2021/03/30 04:23:57;;;;;;;1.20;0.88;;;23.00;43.00;;;;;;5135386;27;20544;-37
2021/03/30 04:26:24;;;;;;;1.42;0.95;;;23.00;43.00;;;;;;5133363;27;20043;-37
2021/03/30 04:28:51;;;;;;;1.20;1.00;;;23.00;43.00;;;;;;5134719;27;20050;-37
2021/03/30 04:31:18;;;;;;;1.40;0.90;;;23.00;43.00;;;;;;5129354;27;20092;-37
2021/03/30 04:33:44;;;;;;;1.02;0.88;;;23.00;43.00;;;;;;5128605;27;20070;-37
2021/03/30 04:36:11;;;;;;;1.70;1.13;;;23.00;43.00;;;;;;5123552;27;20067;-37
2021/03/30 04:38:38;;;;;;;1.45;1.00;;;23.00;43.00;;;;;;5134802;27;20043;-37
2021/03/30 04:41:07;;;;;;;1.25;0.95;;;22.90;42.90;;;;;;5116539;27;20096;-37
2021/03/30 04:43:34;;;;;;;1.50;1.10;;;22.90;42.90;;;;;;5133155;27;20087;-37
2021/03/30 04:46:00;;;;;;;1.48;0.98;;;23.00;43.00;;;;;;5116823;27;20451;-39
2021/03/30 04:48:27;;;;;;;1.77;1.20;;;22.90;42.90;;;;;;5132193;27;20085;-38
2021/03/30 04:50:54;;;;;;;1.17;1.08;;;23.00;43.00;;;;;;5118971;27;20047;-38
2021/03/30 04:53:25;;;;;;;1.45;0.90;;;23.00;43.10;;;;;;5131735;27;20055;-37
2021/03/30 04:55:52;;;;;;;1.77;1.05;;;23.00;43.10;;;;;;5133361;27;20380;-39
2021/03/30 04:58:19;;;;;;;1.27;1.05;;;23.00;43.00;;;;;;5132032;27;20384;-38
2021/03/30 05:00:46;;;;;;;1.15;0.90;;;22.90;42.90;;;;;;5134265;27;20042;-37
2021/03/30 05:03:13;;;;;;;1.00;0.80;;;23.00;43.00;;;;;;5132727;27;20092;-38
2021/03/30 05:05:40;;;;;;;1.05;0.90;;;22.90;42.90;;;;;;5131290;27;20418;-38
2021/03/30 05:08:07;;;;;;;1.50;1.10;;;22.90;42.90;;;;;;5119054;27;20134;-38
2021/03/30 05:10:34;;;;;;;1.65;0.90;;;23.00;43.00;;;;;;5133186;27;20047;-38
2021/03/30 05:13:00;;;;;;;2.80;1.00;;;22.90;43.00;;;;;;5116030;27;20059;-38
2021/03/30 05:15:27;;;;;;;1.38;0.93;;;22.90;43.00;;;;;;5115908;27;20104;-38
2021/03/30 05:17:54;;;;;;;1.08;0.90;;;22.90;43.00;;;;;;5117940;27;20503;-38
2021/03/30 05:20:20;;;;;;;1.90;1.20;;;22.90;43.00;;;;;;5114795;27;20074;-39
2021/03/30 05:22:47;;;;;;;1.48;0.98;;;22.90;43.00;;;;;;5132305;27;20112;-37
2021/03/30 05:25:14;;;;;;;0.98;0.80;;;22.90;42.90;;;;;;5125007;27;20491;-38
2021/03/30 05:27:41;;;;;;;1.92;1.00;;;22.90;43.00;;;;;;5119490;27;20055;-39
2021/03/30 05:30:11;;;;;;;1.10;1.00;;;22.90;43.00;;;;;;5116287;27;20052;-37
2021/03/30 05:32:38;;;;;;;2.20;1.00;;;22.90;43.00;;;;;;5122735;27;20100;-37
2021/03/30 05:35:07;;;;;;;1.67;1.00;;;22.90;42.90;;;;;;5120634;27;20058;-38
2021/03/30 05:37:40;;;;;;;1.17;1.00;;;22.90;42.90;;;;;;5117653;27;20047;-37
2021/03/30 05:40:13;;;;;;;1.45;1.00;;;22.90;43.00;;;;;;5133532;27;20044;-38
2021/03/30 05:42:42;;;;;;;1.52;0.98;;;22.90;43.00;;;;;;5116377;27;20476;-37
2021/03/30 05:45:13;;;;;;;1.25;1.00;;;22.90;42.90;;;;;;5131857;27;20043;-38
2021/03/30 05:47:41;;;;;;;1.25;1.02;;;22.90;42.90;;;;;;5116113;27;20047;-38
2021/03/30 05:50:17;;;;;;;1.42;1.00;;;22.90;42.90;;;;;;5134269;27;20562;-38
2021/03/30 05:52:51;;;;;;;1.40;0.98;;;22.90;42.90;;;;;;5120515;27;20073;-39
2021/03/30 05:55:23;;;;;;;0.88;0.75;;;22.90;42.90;;;;;;5131515;27;20092;-38
2021/03/30 05:57:53;;;;;;;1.88;1.23;;;23.00;43.10;;;;;;5120317;27;20039;-37
2021/03/30 06:00:25;;;;;;;1.92;1.05;;;22.90;43.00;;;;;;5116988;27;20040;-37
2021/03/30 06:02:54;;;;;;;1.38;1.20;;;22.90;43.00;;;;;;5117438;27;20141;-37
2021/03/30 06:05:23;;;;;;;1.20;1.05;;;23.00;43.00;;;;;;5118614;27;20047;-37
2021/03/30 06:07:53;;;;;;;1.50;0.85;;;22.90;42.90;;;;;;5125906;27;20047;-37
2021/03/30 06:10:22;;;;;;;1.17;0.93;;;22.90;43.00;;;;;;5122060;27;20143;-37
2021/03/30 06:13:00;;;;;;;1.17;0.95;;;23.00;43.00;;;;;;5133875;27;20082;-37
2021/03/30 06:15:33;;;;;;;1.65;1.10;;;22.90;42.90;;;;;;5132710;27;20042;-37
2021/03/30 06:18:01;;;;;;;1.63;1.17;;;22.90;42.90;;;;;;5132566;27;20043;-37
2021/03/30 06:20:35;;;;;;;1.67;1.10;;;22.90;42.90;;;;;;5133634;27;20440;-37
2021/03/30 06:23:07;;;;;;;1.40;1.10;;;22.90;42.90;;;;;;5132588;27;20043;-37
2021/03/30 06:25:49;;;;;;;1.90;1.00;;;22.90;42.90;;;;;;5131541;28;20085;-37
2021/03/30 06:28:20;;;;;;;1.10;0.90;;;22.90;42.90;;;;;;5131588;27;20043;-37
2021/03/30 06:31:02;;;;;;;0.95;0.80;;;23.00;43.00;;;;;;5115761;27;20044;-37
2021/03/30 06:33:30;;;;;;;1.95;1.10;;;22.90;42.90;;;;;;5130647;27;20055;-37
2021/03/30 06:36:15;;;;;;;1.60;1.10;;;22.90;42.90;;;;;;5131763;27;20043;-37
2021/03/30 06:39:09;;;;;;;;;;;22.90;42.90;;;;;;5131590;27;20126;-37
2021/03/30 06:46:50;;;;;;;1.40;0.90;;;22.90;42.90;;;;;;5131480;27;20053;-37
2021/03/30 06:49:21;;;;;;;1.15;0.90;;;23.00;43.00;;;;;;5129760;27;20051;-37
2021/03/30 06:51:48;;;;;;;1.58;1.20;;;23.00;43.00;;;;;;5131562;27;20047;-37
2021/03/30 06:54:15;;;;;;;1.10;0.95;;;22.90;42.90;;;;;;5114261;28;20158;-38
2021/03/30 06:57:00;;;;;;;1.77;1.00;;;23.00;43.00;;;;;;5132197;27;20039;-37
2021/03/30 06:59:26;;;;;;;1.88;1.13;;;23.00;43.00;;;;;;5132365;27;20058;-38
2021/03/30 07:01:57;;;;;;;1.30;1.00;;;23.00;43.00;;;;;;5114193;28;20074;-37
2021/03/30 07:04:23;;;;;;;1.92;1.00;;;23.00;43.00;;;;;;5132712;27;20043;-37
2021/03/30 07:06:52;;;;;;;1.77;1.10;;;23.00;42.90;;;;;;5123984;27;20440;-37
2021/03/30 07:09:20;;;;;;;1.02;0.93;;;23.00;42.90;;;;;;5133004;27;20043;-37
2021/03/30 07:11:47;;;;;;;1.58;1.25;;;23.00;42.90;;;;;;5132427;27;20099;-38
2021/03/30 07:14:14;;;;;;;1.42;1.10;;;23.00;42.90;;;;;;5130400;28;20115;-38
2021/03/30 07:16:49;;;;;;;1.20;1.00;;;23.00;42.90;;;;;;5130439;27;20444;-37
2021/03/30 07:19:21;;;;;;;1.10;1.00;;;23.00;42.90;;;;;;5132520;27;20121;-37
2021/03/30 07:21:52;;;;;;;1.48;1.02;;;23.00;42.90;;;;;;5132178;27;20487;-37
2021/03/30 07:24:23;;;;;;;1.60;1.10;;;23.00;42.90;;;;;;5132674;27;20124;-37
2021/03/30 07:27:02;;;;;;;1.50;0.90;;;23.00;42.90;;;;;;5132627;27;20055;-37
2021/03/30 07:29:36;;;;;;;1.23;1.02;;;23.00;42.90;;;;;;5120467;27;20117;-37
2021/03/30 07:32:15;;;;;;;1.70;1.15;;;23.00;42.90;;;;;;5125220;27;20051;-37
2021/03/30 07:35:04;;;;;;;1.30;1.00;;;23.00;42.90;;;;;;5127922;27;20495;-37
2021/03/30 07:37:53;;;;;;;1.27;1.00;;;23.00;42.90;;;;;;5111235;27;20050;-37
2021/03/30 07:40:20;;;;;;;3.42;1.10;;;23.00;42.90;;;;;;5132829;27;20043;-38
2021/03/30 07:42:49;;;;;;;1.63;1.02;;;23.00;42.90;;;;;;5127405;27;20039;-37
2021/03/30 07:45:23;;;;;;;1.05;0.95;;;23.00;42.80;;;;;;5118637;27;20127;-37
2021/03/30 07:47:51;;;;;;;0.82;0.70;;;23.00;42.90;;;;;;5121016;27;20487;-37
2021/03/30 07:50:23;;;;;;;2.15;1.25;;;23.00;42.80;;;;;;5119825;27;20062;-37
2021/03/30 07:52:52;;;;;;;1.77;1.13;;;23.00;42.80;;;;;;5118593;27;20055;-36
2021/03/30 07:55:27;;;;;;;1.50;1.10;;;23.00;42.80;;;;;;5119790;27;20458;-37
2021/03/30 07:58:11;;;;;;;1.38;0.95;;;23.00;42.80;;;;;;5135317;27;20450;-39
2021/03/30 08:00:38;;;;;;;1.77;1.13;;;23.00;42.80;;;;;;5118742;27;20080;-38
2021/03/30 08:03:19;;;;;;;1.98;1.15;;;23.10;42.90;;;;;;5117120;27;20059;-37
2021/03/30 08:06:34;;;;;;;1.65;0.98;;;23.00;42.80;;;;;;5119571;27;20043;-38
2021/03/30 08:09:07;;;;;;;1.20;1.00;;;23.00;42.80;;;;;;5120736;27;20047;-40
2021/03/30 08:11:37;;;;;;;1.92;1.15;;;23.00;42.70;;;;;;5118354;27;20044;-37
2021/03/30 08:14:09;;;;;;;1.52;1.17;;;23.10;42.80;;;;;;5136361;27;20456;-37
2021/03/30 08:16:38;;;;;;;1.73;1.35;;;23.10;43.50;;;;;;5117853;27;20043;-37
2021/03/30 08:19:06;;;;;;;1.05;1.00;;;23.10;42.80;;;;;;5116138;27;20043;-37
2021/03/30 08:22:05;;;;;;;1.27;0.98;;;23.10;42.80;;;;;;5119083;27;20412;-37
2021/03/30 08:24:40;;;;;;;1.10;1.00;;;23.10;42.80;;;;;;5134728;27;20047;-36
2021/03/30 08:27:31;;;;;;;1.25;0.93;;;23.10;42.80;;;;;;5116533;27;20047;-37
2021/03/30 08:29:58;;;;;;;1.30;1.05;;;23.10;42.80;;;;;;5125600;27;20170;-37
2021/03/30 08:32:29;;;;;;;1.00;0.80;;;23.10;42.80;;;;;;5134088;27;20414;-37
2021/03/30 08:34:56;;;;;;;1.48;0.90;;;23.10;42.80;;;;;;5118916;27;20051;-37
2021/03/30 08:37:23;;;;;;;1.55;1.10;;;23.10;42.70;;;;;;5113695;27;20499;-36
2021/03/30 08:39:50;;;;;;;2.28;1.02;;;23.10;42.80;;;;;;5130008;27;20039;-37
2021/03/30 08:42:19;;;;;;;1.00;0.90;;;23.10;42.70;;;;;;5134195;27;20072;-37
2021/03/30 08:45:09;;;;;;;1.20;0.98;;;23.10;42.70;;;;;;5115971;27;20035;-36
2021/03/30 08:47:42;;;;;;;1.33;1.08;;;23.10;42.80;;;;;;5134352;27;20051;-36
2021/03/30 08:50:40;;;;;;;1.45;1.10;;;23.10;42.70;;;;;;5134588;27;20073;-37
2021/03/30 08:53:19;;;;;;;1.77;0.95;;;23.10;42.60;;;;;;5129634;27;20464;-36
2021/03/30 08:55:46;;;;;;;1.63;0.98;;;23.10;42.70;;;;;;5133966;27;20050;-37
2021/03/30 08:58:17;;;;;;;1.30;1.13;;;23.10;42.60;;;;;;5134143;27;20042;-36
2021/03/30 09:00:45;;;;;;;1.58;1.10;;;23.10;42.60;;;;;;5132987;27;20375;-37
2021/03/30 09:03:12;;;;;;;1.35;1.02;;;23.10;42.60;;;;;;5114312;27;20043;-36
2021/03/30 09:05:42;;;;;;;2.28;0.90;;;23.10;42.60;;;;;;5134003;27;20502;-37
2021/03/30 09:08:10;;;;;;;1.83;1.10;;;23.10;43.20;;;;;;5132269;27;20407;-37
2021/03/30 09:10:38;;;;;;;1.60;0.98;;;23.10;42.60;;;;;;5133867;27;20570;-37
2021/03/30 09:13:16;;;;;;;0.90;0.80;;;23.10;42.60;;;;;;5131595;27;20051;-37
2021/03/30 09:15:45;;;;;;;2.20;1.15;;;23.10;42.60;;;;;;5132914;27;20096;-36
2021/03/30 09:18:23;;;;;;;0.90;0.80;;;23.10;42.60;;;;;;5134114;27;20047;-36
2021/03/30 09:21:07;;;;;;;1.80;1.05;;;23.20;42.70;;;;;;5115119;27;20058;-37
2021/03/30 09:23:33;;;;;;;1.30;1.10;;;23.10;42.60;;;;;;5134334;27;20053;-36
2021/03/30 09:26:12;;;;;;;2.17;0.93;;;23.10;42.60;;;;;;5133579;27;20047;-37
2021/03/30 09:28:42;;;;;;;2.20;1.10;;;23.20;42.60;;;;;;5133509;27;20051;-36
2021/03/30 09:31:10;;;;;;;1.30;1.05;;;23.20;42.60;;;;;;5129036;27;20054;-37
2021/03/30 09:33:38;;;;;;;1.25;0.95;;;23.20;42.60;;;;;;5130963;27;20705;-36
2021/03/30 09:36:12;;;;;;;1.70;1.02;;;23.20;42.60;;;;;;5132035;27;20064;-36
2021/03/30 09:38:52;;;;;;;;;;;23.20;42.60;;;;;;5133886;27;20039;-37
2021/03/30 09:41:42;;;;;;;1.27;0.90;;;23.20;42.60;;;;;;5132040;27;19998;-38
2021/03/30 09:44:10;;;;;;;2.85;0.88;;;23.20;42.60;;;;;;5133433;27;20062;-37
2021/03/30 09:46:45;;;;;;;1.63;0.95;;;23.20;42.70;;;;;;5132307;27;20063;-36
2021/03/30 09:49:20;;;;;;;1.65;0.93;;;23.20;42.70;;;;;;5132337;27;20058;-38
2021/03/30 09:51:48;;;;;;;1.45;1.08;;;23.20;42.70;;;;;;5132481;27;20039;-36
2021/03/30 09:54:42;;;;;;;1.95;1.15;;;23.20;42.70;;;;;;5131900;27;20043;-36
2021/03/30 09:57:13;;;;;;;2.13;1.15;;;23.20;42.70;;;;;;5132684;27;20051;-36
2021/03/30 09:59:47;;;;;;;1.00;0.90;;;23.20;42.70;;;;;;5130644;27;20483;-36
2021/03/30 10:02:16;;;;;;;1.25;0.80;;;23.20;42.70;;;;;;5132768;27;20095;-37
2021/03/30 10:04:43;;;;;;;1.20;0.95;;;23.20;42.70;;;;;;5116082;27;20039;-37
2021/03/30 10:07:17;;;;;;;1.30;1.08;;;23.20;42.70;;;;;;5116339;27;20104;-36
2021/03/30 10:09:59;;;;;;;1.15;0.90;;;23.20;42.70;;;;;;5132392;27;20047;-37
2021/03/30 10:12:33;;;;;;;1.98;0.98;;;23.20;42.60;;;;;;5114908;27;20062;-37
2021/03/30 10:15:00;;;;;;;1.73;1.05;;;23.20;42.70;;;;;;5133209;27;20074;-37
2021/03/30 10:17:31;;;;;;;1.35;1.00;;;23.20;42.70;;;;;;5133886;27;20043;-37
2021/03/30 10:19:59;;;;;;;1.48;1.00;;;23.20;42.70;;;;;;5120657;27;20089;-37
2021/03/30 10:22:35;;;;;;;1.45;1.08;;;23.20;42.70;;;;;;5126913;27;20499;-36
2021/03/30 10:25:28;;;;;;;1.40;1.13;;;23.20;42.70;;;;;;5131895;27;20035;-37
2021/03/30 10:27:58;;;;;;;1.27;0.98;;;23.20;42.70;;;;;;5133982;27;20074;-37
2021/03/30 10:30:41;;;;;;;1.30;1.10;;;23.20;42.70;;;;;;5128303;27;20074;-37
2021/03/30 10:33:15;;;;;;;2.23;1.07;;;23.20;42.70;;;;;;5133841;27;20043;-37
2021/03/30 10:35:42;;;;;;;1.92;0.98;;;23.20;42.70;;;;;;5121766;27;20560;-37
2021/03/30 10:38:09;;;;;;;1.52;1.17;;;23.20;42.70;;;;;;5123809;27;20047;-37
2021/03/30 10:40:40;;;;;;;1.85;1.05;;;23.20;42.70;;;;;;5128561;27;20040;-37
2021/03/30 10:43:25;;;;;;;1.27;0.88;;;23.20;42.70;;;;;;5098414;28;20036;-36
2021/03/30 10:45:53;;;;;;;0.98;0.80;;;23.20;42.70;;;;;;5116614;27;20039;-38
2021/03/30 10:48:20;;;;;;;2.03;1.08;;;23.20;42.70;;;;;;5116761;27;20046;-36
2021/03/30 10:50:47;;;;;;;1.45;1.08;;;23.20;42.70;;;;;;5097282;27;20053;-37
2021/03/30 10:53:14;;;;;;;1.30;1.05;;;23.20;42.70;;;;;;5134120;27;20058;-36
2021/03/30 10:55:42;;;;;;;1.83;0.80;;;23.30;42.80;;;;;;5114869;28;20492;-37
2021/03/30 10:58:11;;;;;;;2.65;1.17;;;23.20;42.70;;;;;;5117180;27;20048;-37
2021/03/30 11:00:40;;;;;;;1.30;1.00;;;23.20;42.70;;;;;;5114980;27;20044;-37
2021/03/30 11:03:20;;;;;;;1.30;0.90;;;23.20;42.70;;;;;;5116603;27;20130;-37
2021/03/30 11:05:48;;;;;;;2.05;1.10;;;23.20;42.70;;;;;;5115296;28;20051;-37
2021/03/30 11:08:14;;;;;;;1.55;1.00;;;23.30;42.80;;;;;;5124158;27;20043;-37
2021/03/30 11:10:42;;;;;;;0.95;0.85;;;23.20;42.70;;;;;;5120478;27;20055;-38
2021/03/30 11:13:09;;;;;;;1.60;1.02;;;23.20;42.70;;;;;;5127940;27;20111;-37
2021/03/30 11:15:35;;;;;;;1.75;1.17;;;23.30;42.80;;;;;;5132183;27;20075;-37
2021/03/30 11:18:02;;;;;;;1.92;1.00;;;23.20;42.70;;;;;;5118943;27;20039;-36
2021/03/30 11:20:29;;;;;;;1.40;1.00;;;23.30;42.80;;;;;;5121667;27;20050;-36
2021/03/30 11:22:56;;;;;;;1.25;0.90;;;23.30;42.80;;;;;;5119709;27;20119;-37
2021/03/30 11:25:24;;;;;;;1.85;1.00;;;23.30;42.80;;;;;;5133312;27;20100;-37
2021/03/30 11:27:54;;;;;;;0.93;0.82;;;23.30;42.80;;;;;;5136289;27;20051;-37
2021/03/30 11:30:24;;;;;;;1.00;0.90;;;23.30;42.80;;;;;;5120348;27;20541;-37
2021/03/30 11:35:23;;;;;;;1.45;1.02;;;23.30;42.70;;;;;;5118740;27;20047;-37
2021/03/30 11:37:53;;;;;;;1.13;0.80;;;23.30;42.80;;;;;;5129543;27;20069;-37
2021/03/30 11:40:20;;;;;;;2.08;1.08;;;23.30;42.80;;;;;;5134433;27;20043;-37
2021/03/30 11:42:47;;;;;;;1.45;1.02;;;23.30;42.80;;;;;;5136018;27;20046;-37
2021/03/30 11:45:14;;;;;;;1.63;1.08;;;23.30;42.80;;;;;;5134299;27;20035;-37
2021/03/30 11:47:41;;;;;;;1.67;1.30;;;23.30;42.70;;;;;;5134057;27;20043;-37
2021/03/30 11:50:08;;;;;;;3.00;1.02;;;23.30;42.80;;;;;;5119833;27;20047;-37
2021/03/30 11:52:36;;;;;;;1.90;0.95;;;23.30;42.70;;;;;;5136435;27;20047;-37
2021/03/30 11:55:04;;;;;;;1.27;0.80;;;23.30;42.70;;;;;;5134574;27;20051;-38
2021/03/30 11:57:31;;;;;;;1.40;0.88;;;23.30;42.80;;;;;;5120464;27;20044;-36
2021/03/30 11:59:57;;;;;;;1.58;1.05;;;23.30;42.70;;;;;;5132492;27;20047;-36
2021/03/30 12:02:40;;;;;;;1.02;0.80;;;23.30;42.70;;;;;;5133984;27;20123;-36
2021/03/30 12:05:08;;;;;;;1.00;0.90;;;23.30;42.80;;;;;;5134212;27;20043;-37
2021/03/30 12:07:35;;;;;;;1.08;0.80;;;23.30;42.80;;;;;;5129697;27;20043;-37
2021/03/30 12:10:17;;;;;;;1.83;0.93;;;23.30;42.70;;;;;;5124830;27;20051;-37
2021/03/30 12:12:44;;;;;;;1.92;1.10;;;23.30;42.70;;;;;;5117879;27;20047;-36
2021/03/30 12:15:11;;;;;;;1.27;1.10;;;23.30;42.80;;;;;;5120318;27;20544;-37
2021/03/30 12:17:39;;;;;;;1.45;0.90;;;23.30;42.70;;;;;;5120544;27;20040;-37
2021/03/30 12:20:07;;;;;;;1.33;0.80;;;23.30;42.80;;;;;;5119850;27;20043;-36
2021/03/30 12:22:34;;;;;;;1.23;0.85;;;23.30;42.70;;;;;;5119658;27;20092;-37
2021/03/30 12:25:03;;;;;;;1.65;0.90;;;23.30;42.80;;;;;;5117911;27;20044;-36
2021/03/30 12:27:30;;;;;;;1.55;1.00;;;23.30;42.80;;;;;;5116496;27;20063;-36
2021/03/30 12:29:56;;;;;;;1.20;0.90;;;23.30;42.80;;;;;;5125579;27;20039;-37
2021/03/30 12:32:23;;;;;;;1.02;0.90;;;23.30;42.80;;;;;;5133062;27;20047;-37
2021/03/30 12:34:50;;;;;;;1.50;0.90;;;23.30;42.80;;;;;;5121335;27;20051;-36
2021/03/30 12:37:17;;;;;;;1.33;0.90;;;23.30;42.70;;;;;;5130118;27;20047;-36
2021/03/30 12:39:43;;;;;;;1.15;1.02;;;23.30;42.80;;;;;;5126302;27;20075;-37
2021/03/30 12:42:11;;;;;;;1.13;0.93;;;23.30;42.80;;;;;;5117381;27;20097;-37
2021/03/30 12:44:37;;;;;;;1.65;1.00;;;23.30;42.80;;;;;;5122092;27;20084;-37
2021/03/30 12:47:04;;;;;;;1.55;1.00;;;23.30;42.80;;;;;;5133940;27;20049;-37
2021/03/30 12:49:31;;;;;;;1.30;0.80;;;23.30;42.80;;;;;;5118037;27;20444;-37
2021/03/30 12:51:58;;;;;;;1.92;1.05;;;23.30;42.80;;;;;;5115832;27;20100;-38
2021/03/30 12:54:24;;;;;;;1.58;1.00;;;23.30;42.80;;;;;;5116913;27;20046;-38
2021/03/30 12:56:51;;;;;;;2.03;0.98;;;23.30;42.80;;;;;;5132809;27;20074;-37
2021/03/30 12:59:18;;;;;;;1.02;0.93;;;23.40;42.80;;;;;;5116015;27;20049;-37
2021/03/30 13:01:44;;;;;;;2.20;0.90;;;23.40;42.80;;;;;;5134277;27;20043;-38
2021/03/30 13:04:11;;;;;;;1.40;1.00;;;23.30;42.80;;;;;;5131608;27;20046;-38
2021/03/30 13:06:38;;;;;;;1.05;0.90;;;23.30;42.80;;;;;;5133472;27;20039;-38
2021/03/30 13:09:05;;;;;;;1.20;1.10;;;23.40;42.90;;;;;;5132895;27;20383;-37
2021/03/30 13:11:32;;;;;;;3.17;0.95;;;23.30;42.80;;;;;;5134214;27;20048;-37
2021/03/30 13:13:59;;;;;;;1.05;0.80;;;23.30;42.80;;;;;;5132437;27;20063;-38